Time;durP1;ratioP1;P1;durP2;ratioP2;P2;SDS_P1;SDS_P2;PMS_P1;PMS_P2;Temp;Humidity;BMP_temperature;BMP_pressure;BME280_temperature;BME280_humidity;BME280_pressure;Samples;Min_cycle;Max_cycle;Signal;HPM_P1;HPM_P2
2024/01/09 00:01:28;;;;;;;4.07;2.45;;;;;;;-5.94;67.66;103136.97;5061856;28;20044;-82
2024/01/09 00:03:54;;;;;;;2.92;2.70;;;;;;;-5.94;67.65;103138.66;5061830;28;20491;-82
2024/01/09 00:06:19;;;;;;;6.30;5.68;;;;;;;-5.98;67.96;103134.13;5064649;28;20553;-82
2024/01/09 00:08:50;;;;;;;3.38;2.10;;;;;;;-6.02;68.25;103130.47;5061680;28;20084;-82
2024/01/09 00:11:16;;;;;;;3.17;2.60;;;;;;;-5.98;68.61;103136.72;5061510;28;20028;-82
2024/01/09 00:13:42;;;;;;;2.83;2.35;;;;;;;-6.08;68.92;103127.56;5057683;28;20029;-83
2024/01/09 00:16:08;;;;;;;2.10;2.00;;;;;;;-6.08;68.86;103136.25;5091568;27;20170;-82
2024/01/09 00:18:33;;;;;;;5.50;5.03;;;;;;;-6.06;68.74;103126.88;5054961;28;20021;-82
2024/01/09 00:20:58;;;;;;;2.40;2.25;;;;;;;-6.00;68.39;103128.00;5060402;28;20020;-82
2024/01/09 00:23:24;;;;;;;6.00;5.35;;;;;;;-6.09;70.08;103130.97;5059909;28;20021;-82
2024/01/09 00:25:49;;;;;;;6.57;5.85;;;;;;;-6.13;69.16;103121.25;5061849;28;20469;-82
2024/01/09 00:28:14;;;;;;;2.22;2.00;;;;;;;-6.10;68.81;103130.09;5058301;28;20078;-82
2024/01/09 00:30:40;;;;;;;6.30;5.70;;;;;;;-6.13;69.77;103123.84;5060826;28;20116;-82
2024/01/09 00:33:05;;;;;;;2.35;2.22;;;;;;;-6.16;69.46;103115.91;5086485;27;20017;-82
2024/01/09 00:35:31;;;;;;;6.38;5.60;;;;;;;-6.16;69.48;103108.13;5057601;28;20465;-82
2024/01/09 00:37:56;;;;;;;5.85;5.35;;;;;;;-6.17;69.88;103124.50;5059988;28;20149;-82
2024/01/09 00:40:22;;;;;;;2.45;2.25;;;;;;;-6.14;69.78;103125.56;5062041;28;20040;-81
2024/01/09 00:42:47;;;;;;;2.58;2.00;;;;;;;-6.17;69.75;103120.19;5055383;28;20110;-81
2024/01/09 00:45:12;;;;;;;2.63;2.42;;;;;;;-6.21;70.26;103133.81;5101033;27;20483;-82
2024/01/09 00:47:38;;;;;;;6.10;5.38;;;;;;;-6.30;70.53;103107.38;5063845;28;20029;-82
2024/01/09 00:50:03;;;;;;;2.75;2.55;;;;;;;-6.14;69.60;103117.78;5053079;28;20501;-82
2024/01/09 00:52:29;;;;;;;3.53;2.35;;;;;;;-6.07;69.98;103126.75;5048699;28;20683;-82
2024/01/09 00:54:54;;;;;;;3.13;2.70;;;;;;;-6.11;70.17;103115.31;5060895;28;20028;-81
2024/01/09 00:57:19;;;;;;;2.95;2.03;;;;;;;-6.11;69.62;103115.31;5061801;28;20044;-82
2024/01/09 00:59:45;;;;;;;5.82;5.30;;;;;;;-6.13;69.92;103116.06;5058669;28;20031;-82
2024/01/09 01:02:10;;;;;;;6.10;5.50;;;;;;;-6.16;69.63;103114.19;5057076;28;20049;-82
2024/01/09 01:04:38;;;;;;;3.60;2.72;;;;;;;-6.16;70.25;103114.19;5093060;28;20023;-82
2024/01/09 01:07:04;;;;;;;2.72;2.22;;;;;;;-6.25;70.34;103102.44;5060083;28;20068;-82
2024/01/09 01:09:29;;;;;;;6.63;5.78;;;;;;;-6.29;70.89;103120.41;5057016;28;20067;-83
2024/01/09 01:11:55;;;;;;;6.55;5.53;;;;;;;-6.32;71.23;103119.34;5065652;28;20636;-82
2024/01/09 01:14:21;;;;;;;2.58;2.35;;;;;;;-6.32;71.68;103125.44;5067305;28;20024;-82
2024/01/09 01:16:46;;;;;;;6.57;5.88;;;;;;;-6.38;71.30;103108.66;5057420;28;20029;-81
2024/01/09 01:19:12;;;;;;;6.18;5.57;;;;;;;-6.32;71.83;103119.34;5057315;28;20448;-82
2024/01/09 01:21:37;;;;;;;1.85;1.75;;;;;;;-6.31;71.44;103122.06;5054372;28;20501;-81
2024/01/09 01:24:02;;;;;;;3.22;2.92;;;;;;;-6.25;71.13;103115.41;5064512;28;20048;-81
2024/01/09 01:26:29;;;;;;;7.15;5.78;;;;;;;-6.32;71.76;103116.75;5062441;28;20119;-82
2024/01/09 01:28:54;;;;;;;2.88;1.77;;;;;;;-6.27;70.99;103123.09;5058573;28;20093;-83
2024/01/09 01:31:20;;;;;;;5.45;4.95;;;;;;;-6.36;70.86;103113.09;5053101;28;20040;-82
2024/01/09 01:33:45;;;;;;;2.08;1.98;;;;;;;-6.29;71.33;103124.72;5054060;28;20508;-81
2024/01/09 01:36:16;;;;;;;3.15;2.95;;;;;;;-6.28;71.36;103113.53;5069757;28;20039;-83
2024/01/09 01:38:45;;;;;;;2.47;1.77;;;;;;;-6.34;71.82;103124.47;5059587;28;20032;-83
2024/01/09 01:41:11;;;;;;;2.63;2.20;;;;;;;-6.34;71.84;103142.59;5062916;28;20055;-83
2024/01/09 01:43:36;;;;;;;6.60;5.50;;;;;;;-6.36;71.83;103135.53;5063470;28;20037;-84
2024/01/09 01:46:03;;;;;;;1.95;1.88;;;;;;;-6.39;71.79;103131.09;5060003;28;20036;-83
2024/01/09 01:48:30;;;;;;;6.55;5.55;;;;;;;-6.40;71.69;103143.94;5056628;28;20489;-83
2024/01/09 01:50:56;;;;;;;2.85;2.55;;;;;;;-6.37;71.79;103136.34;5060653;28;20048;-83
2024/01/09 01:53:21;;;;;;;2.08;1.77;;;;;;;-6.42;72.25;103130.03;5052511;28;20056;-83
2024/01/09 01:55:47;;;;;;;6.45;5.20;;;;;;;-6.47;71.91;103126.31;5072296;28;20075;-83
2024/01/09 01:58:13;;;;;;;2.10;1.77;;;;;;;-6.49;72.06;103115.84;5071886;28;20031;-83
2024/01/09 02:00:39;;;;;;;6.57;5.68;;;;;;;-6.54;72.90;103125.94;5056939;28;20603;-84
2024/01/09 02:03:05;;;;;;;6.07;5.47;;;;;;;-6.45;71.50;103132.44;5066985;28;20114;-83
2024/01/09 02:05:33;;;;;;;3.92;2.80;;;;;;;-6.38;71.45;103124.22;5051217;28;20094;-83
2024/01/09 02:07:59;;;;;;;3.90;1.95;;;;;;;-6.46;71.88;103120.31;5060208;28;20028;-83
2024/01/09 02:10:24;;;;;;;2.30;2.17;;;;;;;-6.48;71.74;103125.38;5058955;28;20102;-83
2024/01/09 02:12:50;;;;;;;4.13;2.80;;;;;;;-6.62;71.92;103109.09;5059036;28;20040;-83
2024/01/09 02:15:16;;;;;;;3.08;2.80;;;;;;;-6.57;72.18;103118.00;5056187;28;20381;-83
2024/01/09 02:17:42;;;;;;;3.60;2.05;;;;;;;-6.61;72.67;103126.41;5059626;28;20088;-81
2024/01/09 02:20:09;;;;;;;2.08;1.92;;;;;;;-6.69;72.80;103117.31;5058257;28;20056;-83
2024/01/09 02:22:34;;;;;;;5.82;5.22;;;;;;;-6.59;72.40;103118.75;5065347;28;20032;-82
2024/01/09 02:25:00;;;;;;;6.20;5.60;;;;;;;-6.62;72.72;103115.97;5061071;28;20024;-82
2024/01/09 02:28:02;;;;;;;2.85;2.03;;;;;;;-6.64;72.79;103121.09;5061350;28;20036;-83
2024/01/09 02:30:28;;;;;;;2.15;2.03;;;;;;;-6.59;72.69;103127.41;5062378;28;20020;-83
2024/01/09 02:32:54;;;;;;;2.45;2.25;;;;;;;-6.71;72.98;103108.59;5067020;28;20065;-83
2024/01/09 02:35:19;;;;;;;2.28;2.17;;;;;;;-6.66;73.67;103109.72;5059232;28;20033;-83
2024/01/09 02:37:45;;;;;;;6.50;5.90;;;;;;;-6.67;72.73;103120.00;5072337;28;20039;-83
2024/01/09 02:40:10;;;;;;;2.33;2.17;;;;;;;-6.72;72.90;103111.09;5051742;28;20032;-83
2024/01/09 02:42:35;;;;;;;3.17;2.85;;;;;;;-6.68;73.21;103118.25;5065363;28;20020;-83
2024/01/09 02:45:01;;;;;;;6.00;5.40;;;;;;;-6.74;73.86;103113.59;5059431;28;20038;-83
2024/01/09 02:47:28;;;;;;;2.20;1.98;;;;;;;-6.75;72.89;103105.75;5089739;27;20032;-83
2024/01/09 02:49:54;;;;;;;3.53;2.45;;;;;;;-6.69;73.71;103122.50;5062186;28;20052;-83
2024/01/09 02:52:19;;;;;;;5.80;5.20;;;;;;;-6.75;72.92;103100.56;5066138;28;20139;-84
2024/01/09 02:54:45;;;;;;;2.10;1.92;;;;;;;-6.67;73.04;103110.53;5069530;28;20099;-82
2024/01/09 02:57:11;;;;;;;2.63;2.42;;;;;;;-6.71;73.39;103106.00;5071084;28;20081;-82
2024/01/09 02:59:37;;;;;;;2.58;2.38;;;;;;;-6.69;73.39;103111.25;5062638;28;20057;-83
2024/01/09 03:02:02;;;;;;;4.95;2.50;;;;;;;-6.70;73.82;103109.47;5083871;27;20515;-83
2024/01/09 03:04:28;;;;;;;2.60;2.33;;;;;;;-6.76;73.55;103097.09;5065887;28;20021;-83
2024/01/09 03:06:54;;;;;;;6.32;5.55;;;;;;;-6.77;73.38;103098.78;5073672;28;20123;-83
2024/01/09 03:09:19;;;;;;;5.95;5.35;;;;;;;-6.84;73.29;103081.13;5064349;28;20584;-82
2024/01/09 03:11:45;;;;;;;3.53;2.22;;;;;;;-6.89;74.24;103098.09;5066549;28;20254;-82
2024/01/09 03:14:12;;;;;;;4.32;2.58;;;;;;;-6.77;73.73;103095.31;5066604;28;20024;-82
2024/01/09 03:16:37;;;;;;;3.20;2.97;;;;;;;-6.83;74.13;103097.53;5060248;28;20048;-83
2024/01/09 03:19:02;;;;;;;2.58;2.47;;;;;;;-6.88;74.59;103099.00;5057961;28;20389;-83
2024/01/09 03:21:29;;;;;;;5.45;2.63;;;;;;;-7.03;74.94;103079.16;5062173;28;20079;-82
2024/01/09 03:23:54;;;;;;;6.93;5.90;;;;;;;-6.95;75.45;103099.44;5069382;28;20025;-83
2024/01/09 03:26:21;;;;;;;6.10;5.50;;;;;;;-6.99;75.53;103089.72;5058835;28;20034;-83
2024/01/09 03:28:46;;;;;;;2.60;2.28;;;;;;;-6.92;75.32;103097.91;5053752;28;20378;-84
2024/01/09 03:31:22;;;;;;;6.10;5.50;;;;;;;-6.92;75.14;103099.63;5063081;28;20032;-84
2024/01/09 03:33:48;;;;;;;4.13;3.15;;;;;;;-7.10;75.17;103079.66;5060486;28;20035;-83
2024/01/09 03:36:13;;;;;;;3.20;2.25;;;;;;;-6.91;75.04;103097.09;5068828;28;20021;-84
2024/01/09 03:38:40;;;;;;;2.78;2.58;;;;;;;-6.97;75.70;103093.28;5063466;28;20066;-84
2024/01/09 03:41:06;;;;;;;6.97;5.63;;;;;;;-6.99;75.90;103090.59;5061555;28;20422;-81
2024/01/09 03:43:31;;;;;;;2.63;2.42;;;;;;;-7.00;75.98;103098.28;5063728;28;20028;-83
2024/01/09 03:45:57;;;;;;;4.90;2.45;;;;;;;-6.97;75.84;103107.13;5065191;28;20373;-83
2024/01/09 03:48:22;;;;;;;2.30;2.20;;;;;;;-6.96;75.98;103095.06;5065072;28;20393;-83
2024/01/09 03:50:48;;;;;;;3.20;2.42;;;;;;;-7.02;76.10;103090.44;5074606;28;20062;-83
2024/01/09 03:53:13;;;;;;;2.63;2.42;;;;;;;-7.03;76.41;103105.06;5060325;28;20108;-83
2024/01/09 03:55:39;;;;;;;3.15;2.13;;;;;;;-7.06;76.35;103099.72;5065929;28;20102;-83
2024/01/09 03:58:04;;;;;;;6.82;6.15;;;;;;;-7.07;76.31;103092.75;5061606;28;20483;-83
2024/01/09 04:00:29;;;;;;;2.88;2.65;;;;;;;-7.03;76.63;103099.00;5058173;28;20119;-84
2024/01/09 04:02:55;;;;;;;5.95;3.13;;;;;;;-6.98;76.15;103101.84;5060776;28;20035;-83
2024/01/09 04:05:20;;;;;;;3.33;2.80;;;;;;;-6.92;75.80;103090.16;5061168;28;20048;-83
2024/01/09 04:07:45;;;;;;;7.90;5.88;;;;;;;-7.09;76.32;103076.25;5074580;28;20077;-83
2024/01/09 04:10:10;;;;;;;3.53;2.88;;;;;;;-7.03;76.38;103089.53;5062635;28;20035;-84
2024/01/09 04:12:36;;;;;;;4.03;2.55;;;;;;;-7.03;76.69;103086.06;5066687;28;20040;-84
2024/01/09 04:15:01;;;;;;;2.83;2.60;;;;;;;-6.95;76.27;103094.25;5054912;28;20020;-83
2024/01/09 04:17:27;;;;;;;2.95;2.67;;;;;;;-7.00;76.11;103077.59;5074037;28;20199;-84
2024/01/09 04:19:54;;;;;;;2.45;2.25;;;;;;;-6.97;76.37;103093.28;5066017;28;20029;-84
2024/01/09 04:22:19;;;;;;;6.53;5.93;;;;;;;-7.12;76.71;103075.19;5060093;28;20048;-84
2024/01/09 04:24:44;;;;;;;3.03;2.70;;;;;;;-7.07;77.06;103081.50;5059162;28;20031;-85
2024/01/09 04:27:10;;;;;;;7.28;4.20;;;;;;;-7.02;76.76;103088.75;5056035;28;20028;-84
2024/01/09 04:29:35;;;;;;;2.30;2.17;;;;;;;-7.02;77.06;103090.44;5064002;28;20165;-84
2024/01/09 04:32:00;;;;;;;2.63;2.42;;;;;;;-7.05;77.08;103096.34;5059925;28;20085;-84
2024/01/09 04:34:26;;;;;;;6.47;5.72;;;;;;;-7.17;77.54;103086.97;5060261;28;20033;-84
2024/01/09 04:36:51;;;;;;;7.35;2.50;;;;;;;-7.16;77.52;103089.63;5061091;28;20036;-83
2024/01/09 04:39:17;;;;;;;6.72;6.03;;;;;;;-7.06;77.99;103094.56;5061144;28;20024;-83
2024/01/09 04:41:42;;;;;;;5.15;3.53;;;;;;;-7.08;77.85;103098.75;5057990;28;20028;-83
2024/01/09 04:44:07;;;;;;;2.80;2.60;;;;;;;-7.04;77.61;103100.69;5061389;28;20033;-84
2024/01/09 04:46:33;;;;;;;3.78;2.08;;;;;;;-7.13;77.63;103102.75;5059346;28;20028;-83
2024/01/09 04:48:59;;;;;;;3.28;2.97;;;;;;;-7.29;78.08;103069.94;5059827;28;20087;-84
2024/01/09 04:51:24;;;;;;;3.70;2.97;;;;;;;-7.18;78.70;103092.97;5096315;28;20028;-84
2024/01/09 04:53:49;;;;;;;7.40;6.43;;;;;;;-7.12;77.62;103090.72;5059773;28;20482;-84
2024/01/09 04:56:16;;;;;;;7.90;6.68;;;;;;;-7.12;78.16;103098.47;5065579;28;20166;-84
2024/01/09 04:58:41;;;;;;;3.22;2.95;;;;;;;-7.08;77.51;103100.44;5062559;28;20028;-84
2024/01/09 05:01:13;;;;;;;2.15;1.95;;;;;;;-7.06;77.32;103099.72;5061011;28;20061;-84
2024/01/09 05:03:39;;;;;;;3.92;2.67;;;;;;;-7.15;78.07;103104.34;5061475;28;20028;-84
2024/01/09 05:06:04;;;;;;;3.17;2.90;;;;;;;-7.12;77.99;103103.66;5093848;27;20039;-83
2024/01/09 05:08:29;;;;;;;2.85;2.53;;;;;;;-7.19;77.91;103075.63;5062951;28;20085;-84
2024/01/09 05:10:55;;;;;;;7.63;6.68;;;;;;;-7.13;78.27;103092.41;5060026;28;21793;-83
2024/01/09 05:13:21;;;;;;;2.53;2.33;;;;;;;-7.18;78.69;103100.72;5059283;28;20020;-84
2024/01/09 05:15:46;;;;;;;2.83;2.63;;;;;;;-7.33;78.70;103072.25;5070036;28;20066;-83
2024/01/09 05:18:11;;;;;;;2.53;2.33;;;;;;;-7.27;78.57;103099.38;5061576;28;20034;-83
2024/01/09 05:20:37;;;;;;;6.72;4.57;;;;;;;-7.31;78.94;103100.00;5058154;28;20039;-83
2024/01/09 05:23:02;;;;;;;3.22;2.50;;;;;;;-7.33;79.37;103093.84;5060679;28;20039;-83
2024/01/09 05:25:29;;;;;;;3.00;2.35;;;;;;;-7.35;79.80;103094.56;5064196;28;20029;-84
2024/01/09 05:27:55;;;;;;;2.70;2.50;;;;;;;-7.33;79.59;103098.13;5061293;28;20036;-83
2024/01/09 05:30:21;;;;;;;7.22;6.22;;;;;;;-7.31;79.94;103096.53;5065124;28;20090;-84
2024/01/09 05:32:46;;;;;;;2.78;2.60;;;;;;;-7.28;79.06;103101.88;5059534;28;20032;-85
2024/01/09 05:35:11;;;;;;;3.42;2.58;;;;;;;-7.29;79.20;103103.56;5070213;28;20028;-84
2024/01/09 05:37:37;;;;;;;3.20;2.92;;;;;;;-7.35;79.37;103094.56;5069603;28;20373;-85
2024/01/09 05:40:03;;;;;;;4.15;2.75;;;;;;;-7.35;79.77;103089.41;5062048;28;20032;-84
2024/01/09 05:42:32;;;;;;;2.85;2.35;;;;;;;-7.34;79.96;103091.19;5062490;28;20063;-84
2024/01/09 05:44:57;;;;;;;3.28;2.60;;;;;;;-7.40;79.99;103089.09;5059204;28;20464;-82
2024/01/09 05:47:22;;;;;;;7.43;6.45;;;;;;;-7.44;80.17;103088.84;5061110;28;20040;-83
2024/01/09 05:49:48;;;;;;;4.32;3.92;;;;;;;-7.43;80.13;103080.31;5054152;28;20025;-82
2024/01/09 05:52:13;;;;;;;2.80;2.25;;;;;;;-7.46;80.12;103073.25;5057882;28;20052;-83
2024/01/09 05:54:44;;;;;;;9.00;6.30;;;;;;;-7.45;80.90;103094.81;5063171;28;20088;-84
2024/01/09 05:57:09;;;;;;;3.50;3.15;;;;;;;-7.50;80.48;103080.75;5069800;28;20036;-84
2024/01/09 05:59:36;;;;;;;3.65;2.72;;;;;;;-7.46;80.77;103090.47;5061431;28;20025;-83
2024/01/09 06:02:01;;;;;;;2.05;1.95;;;;;;;-7.53;80.65;103078.84;5060553;28;20131;-84
2024/01/09 06:04:26;;;;;;;4.65;3.35;;;;;;;-7.47;80.65;103096.44;5062662;28;20145;-85
2024/01/09 06:06:52;;;;;;;3.17;2.80;;;;;;;-7.45;80.71;103095.72;5061625;28;20031;-83
2024/01/09 06:09:17;;;;;;;3.85;2.65;;;;;;;-7.52;80.84;103089.31;5061369;28;20032;-83
2024/01/09 06:11:43;;;;;;;3.85;3.42;;;;;;;-7.48;80.68;103092.97;5053646;28;20024;-83
2024/01/09 06:14:08;;;;;;;1.95;1.85;;;;;;;-7.78;81.09;103055.81;5058573;28;20012;-81
2024/01/09 06:16:33;;;;;;;3.83;3.17;;;;;;;-7.56;80.89;103086.44;5065958;28;20028;-83
2024/01/09 06:19:02;;;;;;;4.22;3.33;;;;;;;-7.66;81.15;103068.59;5060020;28;20039;-84
2024/01/09 06:21:27;;;;;;;5.45;3.13;;;;;;;-7.54;81.17;103097.75;5049448;28;20393;-84
2024/01/09 06:23:52;;;;;;;3.17;2.88;;;;;;;-7.50;80.69;103091.09;5060522;28;20029;-83
2024/01/09 06:26:18;;;;;;;9.02;7.32;;;;;;;-7.60;81.68;103095.72;5059563;28;20426;-83
2024/01/09 06:28:43;;;;;;;2.85;2.65;;;;;;;-7.68;81.93;103086.63;5059221;28;20028;-84
2024/01/09 06:31:08;;;;;;;2.45;2.10;;;;;;;-7.67;82.05;103092.69;5048270;28;20608;-83
2024/01/09 06:33:34;;;;;;;10.30;7.13;;;;;;;-7.65;82.89;103091.06;5051937;28;20035;-84
2024/01/09 06:36:02;;;;;;;3.53;3.15;;;;;;;-7.71;82.36;103094.19;5059108;28;20036;-84
2024/01/09 06:38:28;;;;;;;6.68;3.95;;;;;;;-7.82;82.53;103085.78;5061058;28;20081;-83
2024/01/09 06:40:53;;;;;;;7.85;7.05;;;;;;;-7.82;83.27;103090.94;5059055;28;20024;-84
2024/01/09 06:43:18;;;;;;;3.17;2.97;;;;;;;-7.74;83.42;103114.69;5052922;28;20312;-83
2024/01/09 06:45:44;;;;;;;4.90;3.10;;;;;;;-7.74;83.38;103113.78;5059246;28;20043;-85
2024/01/09 06:48:09;;;;;;;2.90;2.63;;;;;;;-7.73;83.13;103116.47;5052940;28;20107;-83
2024/01/09 06:50:35;;;;;;;3.95;2.47;;;;;;;-7.79;83.28;103109.22;5058409;28;20029;-84
2024/01/09 06:53:00;;;;;;;2.72;2.53;;;;;;;-7.76;83.34;103124.06;5050533;28;20478;-83
2024/01/09 06:55:26;;;;;;;9.07;7.60;;;;;;;-7.71;83.00;103125.22;5057096;28;20036;-84
2024/01/09 06:57:52;;;;;;;2.78;2.50;;;;;;;-7.71;82.73;103122.63;5061620;28;20112;-84
2024/01/09 07:00:18;;;;;;;3.00;2.55;;;;;;;-7.68;82.39;103111.59;5059171;28;20621;-84
2024/01/09 07:02:44;;;;;;;10.05;7.05;;;;;;;-7.63;82.41;103117.91;5057559;28;20035;-84
2024/01/09 07:05:10;;;;;;;3.38;2.47;;;;;;;-7.60;81.97;103124.16;5082023;28;20021;-84
2024/01/09 07:07:35;;;;;;;3.42;3.13;;;;;;;-7.65;81.88;103106.56;5049044;28;20083;-84
2024/01/09 07:10:01;;;;;;;3.75;3.20;;;;;;;-7.61;82.52;103126.66;5055386;28;20040;-85
2024/01/09 07:12:27;;;;;;;3.45;3.13;;;;;;;-7.68;82.59;103117.66;5088579;28;20037;-83
2024/01/09 07:14:53;;;;;;;3.42;2.92;;;;;;;-7.67;82.15;103121.13;5054416;28;20153;-84
2024/01/09 07:17:18;;;;;;;8.98;8.05;;;;;;;-7.73;82.89;103126.81;5055434;28;20733;-83
2024/01/09 07:19:43;;;;;;;3.85;3.03;;;;;;;-7.81;83.38;103123.78;5054842;28;20058;-82
2024/01/09 07:22:09;;;;;;;6.00;3.28;;;;;;;-7.91;83.58;103118.81;5055022;28;20028;-83
2024/01/09 07:24:34;;;;;;;8.70;7.80;;;;;;;-7.89;83.87;103124.13;5056411;28;20017;-83
2024/01/09 07:27:00;;;;;;;3.05;2.85;;;;;;;-7.89;83.86;103121.53;5050363;28;20048;-84
2024/01/09 07:29:25;;;;;;;3.72;3.42;;;;;;;-7.78;83.62;103138.56;5054527;28;20133;-84
2024/01/09 07:31:51;;;;;;;6.05;4.10;;;;;;;-7.83;83.78;103135.69;5056123;28;20029;-84
2024/01/09 07:34:17;;;;;;;3.05;2.67;;;;;;;-7.87;84.21;103138.91;5063685;28;20024;-83
2024/01/09 07:36:42;;;;;;;6.20;3.05;;;;;;;-7.85;84.05;103136.44;5058191;28;20481;-83
2024/01/09 07:39:09;;;;;;;4.38;2.55;;;;;;;-7.84;84.32;103143.38;5065539;28;20032;-83
2024/01/09 07:41:35;;;;;;;4.20;2.67;;;;;;;-7.94;84.38;103126.41;5070268;28;20056;-84
2024/01/09 07:44:02;;;;;;;2.72;2.53;;;;;;;-7.79;83.75;103142.84;5054504;28;20032;-82
2024/01/09 07:46:27;;;;;;;1.85;1.67;;;;;;;-7.86;84.36;103147.53;5073155;28;20107;-83
2024/01/09 07:48:53;;;;;;;3.53;3.00;;;;;;;-7.88;84.27;103152.63;5060301;28;20707;-84
2024/01/09 07:51:18;;;;;;;8.30;7.40;;;;;;;-7.88;85.54;103157.81;5063166;28;20029;-83
2024/01/09 07:53:43;;;;;;;4.95;2.72;;;;;;;-7.86;85.08;103161.38;5071928;28;20028;-83
2024/01/09 07:56:16;;;;;;;3.55;3.25;;;;;;;-7.75;84.30;103159.44;5063888;28;20035;-82
2024/01/09 07:58:42;;;;;;;2.95;2.75;;;;;;;-7.80;85.02;103161.75;5062665;28;20024;-83
2024/01/09 08:01:08;;;;;;;4.78;3.08;;;;;;;-7.81;84.67;103143.56;5055814;28;20044;-82
2024/01/09 08:03:33;;;;;;;3.03;2.50;;;;;;;-7.71;84.91;103164.00;5072911;28;20024;-84
2024/01/09 08:05:59;;;;;;;7.05;3.38;;;;;;;-7.76;84.79;103160.25;5091727;27;20212;-84
2024/01/09 08:08:24;;;;;;;3.40;3.05;;;;;;;-7.78;85.22;103161.81;5058295;28;20111;-83
2024/01/09 08:10:49;;;;;;;11.80;3.78;;;;;;;-7.69;84.73;103162.41;5061168;28;20350;-83
2024/01/09 08:13:15;;;;;;;2.33;2.20;;;;;;;-7.67;84.52;103163.38;5069189;28;20515;-82
2024/01/09 08:15:40;;;;;;;3.35;3.05;;;;;;;-7.59;84.20;103159.56;5060371;28;20028;-82
2024/01/09 08:18:06;;;;;;;3.47;2.72;;;;;;;-7.58;84.27;103160.47;5058874;28;20037;-83
2024/01/09 08:20:31;;;;;;;5.13;3.40;;;;;;;-7.63;84.07;103159.28;5055271;28;20032;-83
2024/01/09 08:22:57;;;;;;;3.03;2.78;;;;;;;-7.50;83.64;103160.91;5058600;28;20033;-84
2024/01/09 08:25:23;;;;;;;2.92;2.58;;;;;;;-7.46;83.73;103162.88;5066666;28;20485;-83
2024/01/09 08:27:49;;;;;;;3.13;2.67;;;;;;;-7.42;83.91;103172.63;5066234;28;20028;-83
2024/01/09 08:30:14;;;;;;;8.85;7.72;;;;;;;-7.47;83.62;103168.88;5062027;28;20024;-84
2024/01/09 08:32:40;;;;;;;5.38;3.70;;;;;;;-7.48;83.86;103161.88;5055419;28;20036;-83
2024/01/09 08:35:06;;;;;;;6.43;3.60;;;;;;;-7.49;83.81;103167.88;5052621;28;20065;-85
2024/01/09 08:37:31;;;;;;;8.30;6.30;;;;;;;-7.43;83.23;103168.25;5066486;28;20058;-83
2024/01/09 08:39:56;;;;;;;5.65;3.90;;;;;;;-7.45;83.89;103168.16;5069897;28;20028;-83
2024/01/09 08:42:22;;;;;;;3.95;3.00;;;;;;;-7.45;83.77;103169.84;5063419;28;20086;-83
2024/01/09 08:44:47;;;;;;;5.78;3.10;;;;;;;-7.46;83.95;103168.94;5053737;28;20107;-83
2024/01/09 08:47:13;;;;;;;6.38;3.45;;;;;;;-7.38;83.86;103167.72;5060989;28;20308;-83
2024/01/09 08:49:38;;;;;;;3.97;3.03;;;;;;;-7.36;83.56;103167.78;5060774;28;20031;-83
2024/01/09 08:52:04;;;;;;;3.63;3.33;;;;;;;-7.29;82.96;103178.59;5060372;28;20076;-82
2024/01/09 08:54:31;;;;;;;3.80;3.45;;;;;;;-7.24;83.20;103176.28;5062736;28;20491;-83
2024/01/09 08:56:56;;;;;;;8.57;4.13;;;;;;;-7.21;82.98;103166.13;5091690;28;20121;-83
2024/01/09 08:59:22;;;;;;;3.78;2.85;;;;;;;-7.12;82.31;103171.84;5057158;28;20714;-83
2024/01/09 09:01:47;;;;;;;2.40;2.20;;;;;;;-7.20;82.94;103164.44;5066632;28;20425;-83
2024/01/09 09:04:13;;;;;;;6.72;2.95;;;;;;;-7.16;82.33;103159.50;5062645;28;20859;-83
2024/01/09 09:06:38;;;;;;;10.50;9.15;;;;;;;-7.04;81.68;103169.69;5063909;28;20038;-82
2024/01/09 09:09:04;;;;;;;5.38;3.30;;;;;;;-6.99;81.52;103180.31;5067172;28;20036;-82
2024/01/09 09:11:31;;;;;;;6.72;3.53;;;;;;;-6.93;81.17;103183.28;5060638;28;20031;-81
2024/01/09 09:13:57;;;;;;;5.07;3.75;;;;;;;-6.90;81.85;103179.13;5056717;28;20126;-82
2024/01/09 09:16:23;;;;;;;6.90;3.50;;;;;;;-6.95;81.75;103180.59;5053538;28;20476;-82
2024/01/09 09:18:48;;;;;;;10.70;8.57;;;;;;;-6.85;80.67;103182.03;5056178;28;20024;-82
2024/01/09 09:21:16;;;;;;;8.68;3.45;;;;;;;-6.91;81.23;103176.47;5053864;28;20028;-82
2024/01/09 09:23:42;;;;;;;10.50;9.13;;;;;;;-6.86;80.74;103170.75;5061540;28;20728;-82
2024/01/09 09:26:07;;;;;;;6.05;4.13;;;;;;;-6.89;80.81;103162.84;5058979;28;20159;-83
2024/01/09 09:28:32;;;;;;;3.28;2.88;;;;;;;-6.78;80.26;103192.78;5060636;28;20012;-82
2024/01/09 09:30:58;;;;;;;4.43;3.95;;;;;;;-6.70;80.26;103190.66;5056037;28;20619;-82
2024/01/09 09:33:27;;;;;;;10.02;8.70;;;;;;;-6.66;79.03;103182.25;5059459;28;20036;-83
2024/01/09 09:35:52;;;;;;;3.78;2.38;;;;;;;-6.67;80.01;103182.19;5059983;28;20095;-82
2024/01/09 09:38:17;;;;;;;3.33;2.33;;;;;;;-6.67;80.22;103179.59;5060711;28;20504;-83
2024/01/09 09:40:43;;;;;;;4.72;3.67;;;;;;;-6.63;80.24;103179.84;5058720;28;20028;-82
2024/01/09 09:43:14;;;;;;;6.32;4.00;;;;;;;-6.62;80.04;103183.31;5054945;28;20029;-81
2024/01/09 09:45:42;;;;;;;11.32;8.55;;;;;;;-6.57;78.84;103182.75;5055985;28;20389;-82
2024/01/09 09:48:09;;;;;;;4.22;3.80;;;;;;;-6.49;78.46;103177.13;5061840;28;20032;-82
2024/01/09 09:50:34;;;;;;;3.05;2.28;;;;;;;-6.52;78.97;103173.59;5073124;28;20055;-82
2024/01/09 09:53:02;;;;;;;10.35;8.38;;;;;;;-6.47;78.10;103178.13;5054786;28;20033;-81
2024/01/09 09:55:27;;;;;;;6.13;3.88;;;;;;;-6.44;77.75;103170.50;5060611;28;20384;-82
2024/01/09 09:57:53;;;;;;;7.63;4.10;;;;;;;-6.57;78.11;103151.69;5057828;28;20021;-80
2024/01/09 10:00:18;;;;;;;3.92;3.50;;;;;;;-6.41;77.47;103163.78;5057509;28;20465;-82
2024/01/09 10:02:49;;;;;;;3.55;2.70;;;;;;;-6.33;77.75;103184.97;5059933;28;20037;-82
2024/01/09 10:05:16;;;;;;;10.85;8.48;;;;;;;-6.31;76.42;103173.88;5063171;28;20036;-82
2024/01/09 10:07:44;;;;;;;4.70;3.58;;;;;;;-6.20;75.33;103171.88;5063668;28;20027;-82
2024/01/09 10:10:12;;;;;;;6.10;3.50;;;;;;;-6.18;75.56;103167.69;5060226;28;20077;-82
2024/01/09 10:12:39;;;;;;;2.85;2.40;;;;;;;-6.17;76.66;103172.03;5059700;28;20036;-83
2024/01/09 10:15:12;;;;;;;7.22;4.32;;;;;;;-6.12;75.47;103162.81;5062077;28;20074;-81
2024/01/09 10:17:41;;;;;;;8.90;7.90;;;;;;;-6.13;75.12;103154.97;5059390;28;20164;-81
2024/01/09 10:20:08;;;;;;;7.70;3.90;;;;;;;-6.03;74.85;103171.06;5058938;28;20157;-82
2024/01/09 10:22:35;;;;;;;4.10;3.63;;;;;;;-5.95;74.53;103158.53;5055838;28;20028;-81
2024/01/09 10:25:27;;;;;;;10.75;8.30;;;;;;;-5.87;72.89;103156.31;5060777;28;20032;-82
2024/01/09 10:27:53;;;;;;;8.80;7.82;;;;;;;-5.90;72.30;103157.03;5051013;28;20102;-82
2024/01/09 10:30:19;;;;;;;5.55;4.18;;;;;;;-5.90;73.12;103146.66;5057260;28;20028;-82
2024/01/09 10:32:47;;;;;;;4.70;4.07;;;;;;;-5.90;73.52;103149.25;5055263;28;20032;-82
2024/01/09 10:35:13;;;;;;;3.92;3.10;;;;;;;-5.84;73.33;103147.00;5050342;28;20024;-82
2024/01/09 10:37:38;;;;;;;3.25;2.90;;;;;;;-5.82;73.46;103142.78;5058155;28;20035;-81
2024/01/09 10:40:05;;;;;;;5.30;3.72;;;;;;;-5.79;73.38;103149.84;5056207;28;20052;-81
2024/01/09 10:42:30;;;;;;;3.88;3.25;;;;;;;-5.86;74.07;103137.34;5058866;28;20099;-82
2024/01/09 10:44:59;;;;;;;2.97;2.63;;;;;;;-5.79;73.99;103144.66;5053155;28;20107;-82
2024/01/09 10:47:27;;;;;;;9.48;8.48;;;;;;;-5.69;72.21;103146.00;5065904;28;20036;-82
2024/01/09 10:49:53;;;;;;;9.70;7.97;;;;;;;-5.65;71.47;103147.97;5059982;28;20504;-81
2024/01/09 10:52:20;;;;;;;3.38;3.08;;;;;;;-5.62;71.77;103138.63;5052642;28;20067;-81
2024/01/09 10:54:46;;;;;;;4.50;3.38;;;;;;;-5.65;72.78;103133.28;5054265;28;20489;-81
2024/01/09 10:57:16;;;;;;;8.27;7.43;;;;;;;-5.58;70.32;103137.09;5062328;28;20034;-81
2024/01/09 10:59:42;;;;;;;3.05;2.60;;;;;;;-5.66;71.33;103115.06;5059010;28;20028;-82
2024/01/09 11:02:16;;;;;;;4.15;2.90;;;;;;;-5.46;71.41;103123.88;5055986;28;20098;-80
2024/01/09 11:04:43;;;;;;;;;;;;;;;-5.46;71.26;103124.75;5086023;28;20040;-81
2024/01/09 11:07:12;;;;;;;8.52;7.63;;;;;;;-5.44;69.41;103111.84;5056148;28;19931;-81
2024/01/09 11:09:41;;;;;;;3.33;3.03;;;;;;;-5.54;70.69;103105.31;5053808;28;20671;-82
2024/01/09 11:12:09;;;;;;;3.58;3.28;;;;;;;-5.49;70.97;103119.41;5059997;28;20032;-83
2024/01/09 11:14:38;;;;;;;5.03;3.33;;;;;;;-5.36;70.34;103111.41;5095481;27;20035;-81
2024/01/09 11:17:04;;;;;;;9.73;7.93;;;;;;;-5.34;69.00;103101.13;5090583;28;20025;-81
2024/01/09 11:19:30;;;;;;;4.55;3.15;;;;;;;-5.33;69.52;103097.72;5057760;28;20032;-82